createdAt,value
2018-02-10T00:01:23.629Z,81.05
2018-02-10T00:03:53.032Z,80.62
2018-02-10T00:06:22.389Z,81.15
2018-02-10T00:08:51.745Z,81.07
2018-02-10T00:11:20.991Z,81.55
2018-02-10T00:13:51.728Z,81.84
2018-02-10T00:16:21.694Z,81.53
2018-02-10T00:18:51.091Z,81.65
2018-02-10T00:21:20.855Z,81.79
2018-02-10T00:23:49.966Z,81.58
2018-02-10T00:26:19.966Z,81.65
2018-02-10T00:28:49.746Z,81.37
2018-02-10T00:31:18.974Z,81.21
2018-02-10T00:33:48.801Z,81.22
2018-02-10T00:36:18.693Z,80.91
2018-02-10T00:38:48.141Z,80.89
2018-02-10T00:41:17.215Z,81.08
2018-02-10T00:43:47.285Z,80.95
2018-02-10T00:46:17.357Z,80.47
2018-02-10T00:48:46.859Z,80.92
2018-02-10T00:51:16.949Z,81.04
2018-02-10T00:53:51.855Z,81.25
2018-02-10T00:56:20.940Z,82.33
2018-02-10T00:58:51.024Z,82.51
2018-02-10T01:01:20.222Z,82.18
2018-02-10T01:03:50.952Z,82.48
2018-02-10T01:06:20.919Z,82.45
2018-02-10T01:08:53.600Z,82.09
2018-02-10T01:11:23.835Z,82.45
2018-02-10T01:13:54.118Z,82.17
2018-02-10T01:16:26.475Z,81.89
2018-02-10T01:18:57.324Z,82.59
2018-02-10T01:21:29.308Z,82.15
2018-02-10T01:23:58.269Z,82.03
2018-02-10T01:26:27.369Z,82.33
2018-02-10T01:28:57.320Z,82.34
2018-02-10T01:31:26.274Z,81.28
2018-02-10T01:33:55.792Z,82.54
2018-02-10T01:36:26.842Z,82.37
2018-02-10T01:38:55.818Z,82.12
2018-02-10T01:41:24.949Z,81.37
2018-02-10T01:43:56.571Z,80.95
2018-02-10T01:46:25.493Z,81.14
2018-02-10T01:48:55.067Z,82.77
2018-02-10T01:51:25.741Z,82.48
2018-02-10T01:53:54.795Z,82.15
2018-02-10T01:56:24.016Z,82.44
2018-02-10T01:58:54.525Z,81.90
2018-02-10T02:01:23.457Z,81.74
2018-02-10T02:03:53.453Z,81.84
2018-02-10T02:06:27.442Z,81.64
2018-02-10T02:08:57.551Z,81.76
2018-02-10T02:11:27.992Z,82.03
2018-02-10T02:13:57.087Z,81.52
2018-02-10T02:16:26.294Z,81.46
2018-02-10T02:18:55.495Z,81.94
2018-02-10T02:21:25.595Z,82.45
2018-02-10T02:23:54.742Z,82.65
2018-02-10T02:26:23.694Z,82.78
2018-02-10T02:28:53.415Z,82.62
2018-02-10T02:31:23.394Z,83.30
2018-02-10T02:33:52.621Z,83.35
2018-02-10T02:36:22.685Z,82.84
2018-02-10T02:38:51.744Z,82.74
2018-02-10T02:41:20.848Z,83.06
2018-02-10T02:43:50.649Z,83.43
2018-02-10T02:46:20.405Z,84.77
2018-02-10T02:48:49.452Z,85.06
2018-02-10T02:51:20.424Z,86.47
2018-02-10T02:53:50.237Z,87.49
2018-02-10T02:56:20.137Z,86.16
2018-02-10T02:58:50.134Z,84.92
2018-02-10T03:01:19.135Z,83.91
2018-02-10T03:03:48.225Z,83.24
2018-02-10T03:06:18.793Z,83.71
2018-02-10T03:08:50.512Z,83.63
2018-02-10T03:11:22.065Z,83.34
2018-02-10T03:13:51.077Z,83.24
2018-02-10T03:16:22.085Z,83.08
2018-02-10T03:18:53.761Z,83.42
2018-02-10T03:21:22.687Z,83.56
2018-02-10T03:23:51.746Z,83.01
2018-02-10T03:26:20.910Z,82.87
2018-02-10T03:28:50.141Z,82.69
2018-02-10T03:31:20.101Z,82.23
2018-02-10T03:33:50.794Z,81.91
2018-02-10T03:36:19.888Z,82.53
2018-02-10T03:38:48.989Z,83.11
2018-02-10T03:41:19.718Z,84.78
2018-02-10T03:43:49.845Z,84.89
2018-02-10T03:46:18.863Z,85.57
2018-02-10T03:48:50.744Z,85.34
2018-02-10T03:51:19.787Z,85.01
2018-02-10T03:53:49.705Z,84.21
2018-02-10T03:56:18.937Z,83.84
2018-02-10T03:58:47.998Z,83.82
2018-02-10T04:01:16.886Z,84.24
2018-02-10T04:03:46.729Z,84.40
2018-02-10T04:06:15.799Z,84.11
2018-02-10T04:08:44.859Z,83.68
2018-02-10T04:11:15.663Z,83.28
2018-02-10T04:13:44.727Z,83.61
2018-02-10T04:16:14.641Z,84.07
2018-02-10T04:18:45.511Z,83.51
2018-02-10T04:21:14.472Z,83.70
2018-02-10T04:23:43.698Z,83.87
2018-02-10T04:26:14.312Z,83.45
2018-02-10T04:28:50.411Z,83.88
2018-02-10T04:31:19.572Z,83.92
2018-02-10T04:33:50.126Z,84.15
2018-02-10T04:36:19.233Z,84.16
2018-02-10T04:38:53.413Z,84.11
2018-02-10T04:41:22.476Z,84.47
2018-02-10T04:43:51.502Z,84.49
2018-02-10T04:46:22.542Z,84.30
2018-02-10T04:48:51.741Z,84.11
2018-02-10T04:51:21.489Z,84.01
2018-02-10T04:53:50.419Z,84.16
2018-02-10T04:56:19.751Z,84.85
2018-02-10T04:58:48.774Z,84.43
2018-02-10T05:01:18.349Z,84.03
2018-02-10T05:03:48.055Z,84.12
2018-02-10T05:06:17.977Z,85.34
2018-02-10T05:08:47.066Z,84.78
2018-02-10T05:11:16.164Z,85.66
2018-02-10T05:13:46.794Z,84.43
2018-02-10T05:16:17.734Z,84.20
2018-02-10T05:18:49.530Z,83.43
2018-02-10T05:21:18.589Z,82.85
2018-02-10T05:23:47.501Z,82.50
2018-02-10T05:26:18.253Z,82.64
2018-02-10T05:28:47.452Z,82.54
2018-02-10T05:31:16.512Z,82.54
2018-02-10T05:33:45.610Z,82.24
2018-02-10T05:36:17.722Z,81.99
2018-02-10T05:38:46.799Z,81.23
2018-02-10T05:41:15.864Z,81.37
2018-02-10T05:43:45.718Z,80.96
2018-02-10T05:46:14.772Z,80.10
2018-02-10T05:48:43.764Z,79.90
2018-02-10T05:51:13.819Z,78.87
2018-02-10T05:53:42.707Z,77.71
2018-02-10T05:56:11.769Z,76.58
2018-02-10T05:58:44.032Z,75.77
2018-02-10T06:01:14.044Z,75.02
2018-02-10T06:03:46.226Z,73.98
2018-02-10T06:06:15.251Z,73.31
2018-02-10T06:08:45.178Z,72.20
2018-02-10T06:11:15.882Z,71.12
2018-02-10T06:13:44.866Z,70.70
2018-02-10T06:16:13.862Z,71.03
2018-02-10T06:18:44.703Z,71.07
2018-02-10T06:21:13.690Z,70.96
2018-02-10T06:23:42.732Z,71.02
2018-02-10T06:26:11.820Z,70.32
2018-02-10T06:28:40.906Z,70.46
2018-02-10T06:31:10.924Z,70.21
2018-02-10T06:33:41.349Z,69.58
2018-02-10T06:36:10.352Z,69.20
2018-02-10T06:38:39.510Z,68.60
2018-02-10T06:41:09.530Z,68.86
2018-02-10T06:43:39.517Z,68.73
2018-02-10T06:46:09.917Z,68.99
2018-02-10T06:48:39.929Z,68.43
2018-02-10T06:51:09.037Z,68.25
2018-02-10T06:53:38.011Z,68.64
2018-02-10T06:56:07.273Z,69.30
2018-02-10T06:58:36.209Z,68.95
2018-02-10T07:01:05.958Z,68.95
2018-02-10T07:03:37.642Z,69.26
2018-02-10T07:06:06.734Z,68.25
2018-02-10T07:08:35.728Z,67.84
2018-02-10T07:11:08.513Z,68.94
2018-02-10T07:13:38.428Z,67.95
2018-02-10T07:16:07.427Z,67.92
2018-02-10T07:18:38.165Z,68.96
2018-02-10T07:21:07.098Z,69.29
2018-02-10T07:23:36.197Z,69.84
2018-02-10T07:26:08.621Z,70.87
2018-02-10T07:28:39.394Z,72.28
2018-02-10T07:31:08.446Z,72.76
2018-02-10T07:33:38.437Z,72.84
2018-02-10T07:36:07.470Z,72.65
2018-02-10T07:38:36.451Z,73.00
2018-02-10T07:41:06.276Z,75.30
2018-02-10T07:43:35.262Z,76.00
2018-02-10T07:46:04.456Z,77.36
2018-02-10T07:48:34.474Z,77.28
2018-02-10T07:51:04.425Z,76.16
2018-02-10T07:53:33.385Z,76.03
2018-02-10T07:56:02.616Z,75.08
2018-02-10T07:58:32.191Z,75.95
2018-02-10T08:01:01.302Z,75.70
2018-02-10T08:03:31.685Z,73.51
2018-02-10T08:06:01.605Z,73.00
2018-02-10T08:08:30.520Z,72.43
2018-02-10T08:11:03.238Z,70.84
2018-02-10T08:13:32.925Z,70.44
2018-02-10T08:16:01.912Z,73.26
2018-02-10T08:18:34.793Z,72.38
2018-02-10T08:21:03.853Z,71.21
2018-02-10T08:23:33.853Z,70.94
2018-02-10T08:26:07.245Z,71.63
2018-02-10T08:28:37.058Z,68.69
2018-02-10T08:31:06.110Z,67.07
2018-02-10T08:33:37.070Z,66.87
2018-02-10T08:36:07.649Z,69.60
2018-02-10T08:38:36.708Z,68.41
2018-02-10T08:41:07.448Z,69.18
2018-02-10T08:43:37.241Z,68.85
2018-02-10T08:46:07.384Z,68.14
2018-02-10T08:48:37.459Z,69.30
2018-02-10T08:51:07.490Z,70.95
2018-02-10T08:53:36.506Z,70.12
2018-02-10T08:56:05.617Z,69.61
2018-02-10T08:58:34.716Z,68.68
2018-02-10T09:01:04.424Z,67.91
2018-02-10T09:03:34.081Z,69.32
2018-02-10T09:06:04.746Z,69.92
2018-02-10T09:08:33.929Z,72.13
2018-02-10T09:11:03.117Z,71.18
2018-02-10T09:13:32.380Z,69.27
2018-02-10T09:16:01.410Z,68.75
2018-02-10T09:18:31.520Z,68.88
2018-02-10T09:21:00.632Z,68.98
2018-02-10T09:23:29.591Z,70.08
2018-02-10T09:26:00.401Z,70.54
2018-02-10T09:28:29.554Z,71.71
2018-02-10T09:30:58.754Z,72.39
2018-02-10T09:33:31.425Z,71.79
2018-02-10T09:36:01.963Z,70.23
2018-02-10T09:38:32.169Z,70.30
2018-02-10T09:41:01.181Z,70.13
2018-02-10T09:43:30.224Z,71.66
2018-02-10T09:46:00.051Z,71.54
2018-02-10T09:48:29.084Z,71.22
2018-02-10T09:50:58.980Z,71.51
2018-02-10T09:53:43.636Z,71.04
2018-02-10T09:56:14.521Z,72.86
2018-02-10T09:58:44.754Z,72.90
2018-02-10T10:01:14.739Z,73.28
2018-02-10T10:03:44.038Z,71.75
2018-02-10T10:06:13.738Z,70.38
2018-02-10T10:08:42.743Z,70.04
2018-02-10T10:11:12.642Z,70.54
2018-02-10T10:13:46.163Z,70.02
2018-02-10T10:16:18.177Z,71.68
2018-02-10T10:18:47.381Z,72.31
2018-02-10T10:21:17.035Z,72.51
2018-02-10T10:23:46.955Z,72.21
2018-02-10T10:26:16.865Z,71.71
2018-02-10T10:28:45.962Z,71.95
2018-02-10T10:31:15.465Z,71.79
2018-02-10T10:33:44.764Z,71.12
2018-02-10T10:36:14.731Z,70.90
2018-02-10T10:38:43.837Z,70.86
2018-02-10T10:41:14.103Z,71.76
2018-02-10T10:43:43.291Z,72.54
2018-02-10T10:46:12.346Z,71.63
2018-02-10T10:48:41.714Z,70.93
2018-02-10T10:51:10.873Z,71.31
2018-02-10T10:53:40.411Z,71.53
2018-02-10T10:56:09.444Z,72.51
2018-02-10T10:58:39.285Z,72.79
2018-02-10T11:01:08.512Z,72.57
2018-02-10T11:03:40.984Z,74.03
2018-02-10T11:06:10.899Z,73.36
2018-02-10T11:08:39.897Z,74.43
2018-02-10T11:11:09.718Z,75.33
2018-02-10T11:13:39.553Z,75.14
2018-02-10T11:16:09.666Z,75.00
2018-02-10T11:18:40.662Z,75.59
2018-02-10T11:21:10.295Z,74.47
2018-02-10T11:23:43.282Z,74.07
2018-02-10T11:26:12.277Z,74.78
2018-02-10T11:28:41.508Z,74.88
2018-02-10T11:31:10.657Z,75.16
2018-02-10T11:33:40.382Z,75.45
2018-02-10T11:36:12.087Z,75.43
2018-02-10T11:38:41.193Z,75.44
2018-02-10T11:41:10.436Z,75.76
2018-02-10T11:43:40.187Z,75.85
2018-02-10T11:46:09.138Z,75.77
2018-02-10T11:48:38.273Z,76.60
2018-02-10T11:51:10.168Z,77.27
2018-02-10T11:53:39.276Z,77.78
2018-02-10T11:56:09.177Z,76.68
2018-02-10T11:58:39.088Z,76.39
2018-02-10T12:01:08.191Z,74.92
2018-02-10T12:03:37.114Z,75.45
2018-02-10T12:06:07.746Z,76.17
2018-02-10T12:08:36.706Z,76.35
2018-02-10T12:11:07.783Z,75.06
2018-02-10T12:13:42.819Z,75.47
2018-02-10T12:16:11.841Z,75.45
2018-02-10T12:18:41.731Z,75.91
2018-02-10T12:21:11.628Z,75.80
2018-02-10T12:23:40.635Z,75.80
2018-02-10T12:26:09.835Z,76.52
2018-02-10T12:28:38.886Z,77.42
2018-02-10T12:31:08.128Z,79.21
2018-02-10T12:33:38.020Z,80.39
2018-02-10T12:36:08.847Z,79.30
2018-02-10T12:38:38.833Z,79.46
2018-02-10T12:41:08.017Z,80.10
2018-02-10T12:43:37.431Z,80.43
2018-02-10T12:46:07.661Z,81.19
2018-02-10T12:48:45.501Z,81.52
2018-02-10T12:51:14.931Z,81.69
2018-02-10T12:53:44.246Z,81.47
2018-02-10T12:56:15.008Z,82.76
2018-02-10T12:58:44.617Z,83.28
2018-02-10T13:01:14.221Z,83.25
2018-02-10T13:03:44.445Z,83.51
2018-02-10T13:06:13.952Z,83.73
2018-02-10T13:08:43.302Z,84.26
2018-02-10T13:11:13.071Z,84.81
2018-02-10T13:13:42.365Z,85.02
2018-02-10T13:16:11.724Z,85.87
2018-02-10T13:18:41.812Z,85.99
2018-02-10T13:21:10.978Z,85.09
2018-02-10T13:23:40.096Z,85.37
2018-02-10T13:26:10.827Z,84.88
2018-02-10T13:28:40.119Z,84.75
2018-02-10T13:31:09.181Z,83.79
2018-02-10T13:33:40.934Z,84.01
2018-02-10T13:36:10.958Z,83.66
2018-02-10T13:38:40.080Z,83.19
2018-02-10T13:41:09.395Z,84.18
2018-02-10T13:43:38.544Z,84.56
2018-02-10T13:46:07.848Z,84.28
2018-02-10T13:48:42.883Z,84.35
2018-02-10T13:51:13.283Z,84.94
2018-02-10T13:53:43.539Z,84.60
2018-02-10T13:56:12.885Z,83.80
2018-02-10T13:58:42.770Z,84.06
2018-02-10T14:01:11.878Z,84.63
2018-02-10T14:03:41.142Z,84.44
2018-02-10T14:06:11.057Z,85.26
2018-02-10T14:08:40.318Z,86.11
2018-02-10T14:11:09.356Z,86.81
2018-02-10T14:13:39.388Z,86.61
2018-02-10T14:16:08.740Z,86.65
2018-02-10T14:18:38.081Z,87.11
2018-02-10T14:21:07.887Z,86.12
2018-02-10T14:23:37.438Z,86.18
2018-02-10T14:26:06.580Z,86.29
2018-02-10T14:28:35.746Z,86.54
2018-02-10T14:31:06.736Z,87.17
2018-02-10T14:33:36.803Z,87.07
2018-02-10T14:36:07.740Z,87.35
2018-02-10T14:38:36.997Z,87.60
2018-02-10T14:41:06.095Z,87.38
2018-02-10T14:43:36.106Z,87.81
2018-02-10T14:46:07.475Z,87.92
2018-02-10T14:48:36.758Z,88.06
2018-02-10T14:51:06.005Z,88.04
2018-02-10T14:53:35.984Z,88.24
2018-02-10T14:56:06.070Z,88.29
2018-02-10T14:58:35.310Z,87.94
2018-02-10T15:01:05.168Z,87.49
2018-02-10T15:03:34.867Z,87.73
2018-02-10T15:06:05.677Z,88.00
2018-02-10T15:08:34.905Z,87.67
2018-02-10T15:11:05.693Z,87.50
2018-02-10T15:13:35.131Z,87.76
2018-02-10T15:16:04.448Z,87.48
2018-02-10T15:18:34.904Z,87.59
2018-02-10T15:21:04.081Z,88.14
2018-02-10T15:23:34.478Z,88.19
2018-02-10T15:26:03.794Z,88.21
2018-02-10T15:28:33.258Z,87.97
2018-02-10T15:31:14.241Z,88.67
2018-02-10T15:33:54.690Z,88.79
2018-02-10T15:36:23.953Z,88.56
2018-02-10T15:38:54.064Z,88.54
2018-02-10T15:41:23.365Z,88.85
2018-02-10T15:43:54.864Z,89.05
2018-02-10T15:46:24.429Z,88.93
2018-02-10T15:48:54.135Z,89.17
2018-02-10T15:51:24.873Z,88.75
2018-02-10T15:53:54.064Z,88.80
2018-02-10T15:56:23.592Z,88.71
2018-02-10T15:58:53.355Z,88.77
2018-02-10T16:01:22.917Z,89.18
2018-02-10T16:03:52.570Z,88.61
2018-02-10T16:06:22.214Z,88.19
2018-02-10T16:08:51.879Z,88.04
2018-02-10T16:11:21.079Z,87.96
2018-02-10T16:13:52.565Z,87.69
2018-02-10T16:16:22.165Z,86.92
2018-02-10T16:18:51.706Z,86.93
2018-02-10T16:21:21.383Z,86.83
2018-02-10T16:23:50.649Z,86.71
2018-02-10T16:26:21.466Z,86.68
2018-02-10T16:28:51.776Z,86.69
2018-02-10T16:31:21.358Z,86.73
2018-02-10T16:33:50.830Z,86.91
2018-02-10T16:36:21.862Z,86.88
2018-02-10T16:38:51.615Z,87.17
2018-02-10T16:41:22.057Z,86.76
2018-02-10T16:43:54.043Z,86.74
2018-02-10T16:46:23.006Z,87.16
2018-02-10T16:48:52.290Z,86.64
2018-02-10T16:51:21.657Z,86.78
2018-02-10T16:53:50.917Z,87.03
2018-02-10T16:56:20.172Z,87.32
2018-02-10T16:58:50.818Z,87.14
2018-02-10T17:01:20.945Z,87.42
2018-02-10T17:03:50.434Z,87.54
2018-02-10T17:06:21.801Z,88.05
2018-02-10T17:08:51.433Z,88.18
2018-02-10T17:11:20.682Z,87.63
2018-02-10T17:13:50.045Z,87.15
2018-02-10T17:16:20.145Z,87.52
2018-02-10T17:18:50.005Z,87.59
2018-02-10T17:21:20.490Z,87.65
2018-02-10T17:23:49.842Z,87.58
2018-02-10T17:26:20.106Z,87.79
2018-02-10T17:28:54.953Z,87.93
2018-02-10T17:31:25.279Z,87.43
2018-02-10T17:33:54.650Z,87.34
2018-02-10T17:36:23.897Z,87.02
2018-02-10T17:38:53.124Z,87.07
2018-02-10T17:41:22.805Z,87.06
2018-02-10T17:43:54.633Z,86.93
2018-02-10T17:46:24.647Z,86.84
2018-02-10T17:48:53.815Z,86.81
2018-02-10T17:51:23.101Z,87.04
2018-02-10T17:53:52.471Z,87.40
2018-02-10T17:56:22.577Z,87.20
2018-02-10T17:58:53.788Z,87.70
2018-02-10T18:01:22.805Z,87.35
2018-02-10T18:03:52.085Z,87.63
2018-02-10T18:06:21.073Z,87.71
2018-02-10T18:08:50.615Z,87.82
2018-02-10T18:11:20.203Z,88.39
2018-02-10T18:13:54.971Z,88.84
2018-02-10T18:16:24.156Z,88.70
2018-02-10T18:18:53.580Z,89.22
2018-02-10T18:21:24.565Z,89.75
2018-02-10T18:23:53.858Z,89.81
2018-02-10T18:26:28.949Z,89.81
2018-02-10T18:28:58.202Z,89.85
2018-02-10T18:31:27.296Z,89.83
2018-02-10T18:33:58.283Z,89.43
2018-02-10T18:36:27.570Z,89.51
2018-02-10T18:38:56.981Z,89.93
2018-02-10T18:41:27.757Z,89.81
2018-02-10T18:43:56.768Z,89.94
2018-02-10T18:46:26.006Z,90.17
2018-02-10T18:48:58.555Z,89.89
2018-02-10T18:51:27.746Z,90.15
2018-02-10T18:53:56.676Z,90.27
2018-02-10T18:56:29.384Z,90.57
2018-02-10T18:58:58.618Z,90.47
2018-02-10T19:01:28.751Z,90.93
2018-02-10T19:03:58.096Z,91.23
2018-02-10T19:06:27.445Z,91.14
2018-02-10T19:08:56.742Z,91.26
2018-02-10T19:11:25.880Z,91.44
2018-02-10T19:13:55.086Z,90.98
2018-02-10T19:16:24.397Z,91.45
2018-02-10T19:18:53.785Z,91.27
2018-02-10T19:21:23.295Z,91.57
2018-02-10T19:23:52.549Z,91.80
2018-02-10T19:26:24.000Z,91.74
2018-02-10T19:28:53.196Z,91.70
2018-02-10T19:31:22.276Z,91.69
2018-02-10T19:33:52.227Z,91.79
2018-02-10T19:36:21.409Z,90.94
2018-02-10T19:38:50.597Z,91.07
2018-02-10T19:41:20.735Z,91.25
2018-02-10T19:43:49.724Z,90.87
2018-02-10T19:46:19.058Z,91.32
2018-02-10T19:48:49.021Z,91.49
2018-02-10T19:51:18.093Z,91.28
2018-02-10T19:53:47.105Z,91.30
2018-02-10T19:56:17.859Z,91.45
2018-02-10T19:58:47.274Z,91.49
2018-02-10T20:01:16.314Z,91.12
2018-02-10T20:03:50.579Z,91.29
2018-02-10T20:06:20.321Z,91.05
2018-02-10T20:08:49.485Z,90.61
2018-02-10T20:11:21.766Z,91.47
2018-02-10T20:13:51.013Z,91.02
2018-02-10T20:16:20.160Z,91.46
2018-02-10T20:18:50.212Z,91.54
2018-02-10T20:21:20.842Z,91.52
2018-02-10T20:23:50.006Z,91.30
2018-02-10T20:28:55.161Z,91.47
2018-02-10T20:31:25.190Z,91.72
2018-02-10T20:33:54.731Z,91.46
2018-02-10T20:36:23.784Z,91.58
2018-02-10T20:38:53.819Z,91.97
2018-02-10T20:41:23.202Z,92.20
2018-02-10T20:43:52.854Z,92.00
2018-02-10T20:46:22.525Z,91.56
2018-02-10T20:48:53.328Z,91.68
2018-02-10T20:51:22.494Z,91.33
2018-02-10T20:53:52.382Z,91.38
2018-02-10T20:56:24.977Z,91.97
2018-02-10T20:58:54.917Z,91.86
2018-02-10T21:01:23.964Z,91.55
2018-02-10T21:03:56.661Z,91.90
2018-02-10T21:06:26.575Z,91.60
2018-02-10T21:08:55.701Z,91.09
2018-02-10T21:11:27.378Z,91.40
2018-02-10T21:13:56.403Z,91.25
2018-02-10T21:16:25.623Z,91.05
2018-02-10T21:18:56.634Z,91.60
2018-02-10T21:21:26.871Z,91.33
2018-02-10T21:23:56.816Z,91.04
2018-02-10T21:26:31.203Z,91.23
2018-02-10T21:29:00.840Z,90.89
2018-02-10T21:31:30.223Z,91.29
2018-02-10T21:34:01.941Z,91.23
2018-02-10T21:36:31.876Z,91.45
2018-02-10T21:39:01.806Z,91.70
2018-02-10T21:41:30.958Z,91.42
2018-02-10T21:44:00.196Z,91.46
2018-02-10T21:46:29.259Z,91.45
2018-02-10T21:49:00.195Z,91.04
2018-02-10T21:51:30.211Z,91.32
2018-02-10T21:54:00.216Z,91.28
2018-02-10T21:56:29.615Z,90.97
2018-02-10T21:58:59.575Z,90.61
2018-02-10T22:01:28.718Z,90.75
2018-02-10T22:03:59.571Z,90.16
2018-02-10T22:06:28.782Z,90.40
2018-02-10T22:08:57.930Z,90.33
2018-02-10T22:11:28.050Z,90.36
2018-02-10T22:13:57.301Z,90.28
2018-02-10T22:16:27.257Z,90.17
2018-02-10T22:18:58.572Z,89.88
2018-02-10T22:21:27.813Z,89.86
2018-02-10T22:23:57.274Z,89.68
2018-02-10T22:26:27.217Z,89.51
2018-02-10T22:28:56.663Z,89.37
2018-02-10T22:31:26.764Z,89.70
2018-02-10T22:33:58.408Z,89.53
2018-02-10T22:36:27.807Z,90.06
2018-02-10T22:38:58.067Z,90.56
2018-02-10T22:41:28.564Z,91.65
2018-02-10T22:43:58.126Z,92.66
2018-02-10T22:46:27.412Z,93.67
2018-02-10T22:48:56.994Z,94.10
2018-02-10T22:51:26.390Z,94.86
2018-02-10T22:53:55.940Z,96.07
2018-02-10T22:56:27.462Z,96.63
2018-02-10T22:58:57.573Z,97.00
2018-02-10T23:01:27.263Z,98.05
2018-02-10T23:03:58.283Z,98.58
2018-02-10T23:06:27.902Z,98.81
2018-02-10T23:08:57.317Z,99.00
2018-02-10T23:11:31.142Z,99.40
2018-02-10T23:14:00.484Z,99.51
2018-02-10T23:16:29.533Z,99.66
2018-02-10T23:19:00.418Z,99.56
2018-02-10T23:21:29.574Z,99.46
2018-02-10T23:23:58.805Z,99.71
2018-02-10T23:26:30.189Z,100.00
2018-02-10T23:28:59.929Z,100.00
2018-02-10T23:31:28.915Z,100.00
2018-02-10T23:33:58.301Z,100.00
2018-02-10T23:36:27.603Z,99.95
2018-02-10T23:38:57.241Z,99.81
2018-02-10T23:41:29.056Z,99.80
2018-02-10T23:43:58.295Z,99.38
2018-02-10T23:46:27.590Z,99.77
2018-02-10T23:48:56.792Z,99.52
2018-02-10T23:51:26.143Z,99.12
2018-02-10T23:53:55.179Z,98.78
2018-02-10T23:56:25.168Z,98.92
2018-02-10T23:58:54.198Z,99.04
